Hauptseite
METAR-TAF:

METAR-TAF

Flughäfen :

Flughafen Aqaba

Aqaba, Jordanien

Breite: 29-38N, Länge: 035-01E, Höhe: 53 m

Beobachtung

Neuester Wetterbericht von vor 56 Minuten, um 10:00 UTC
Wind 10 kt aus Nord/Nordwest
Temperatur 30°C
Luftfeuchtigkeit 33%
Luftdruck 1011 hPa
Sichtweite 10 km oder mehr
keine Wolken unter 1500 m und keine Kumulonimbus oder Gewitterwolken

METAR: OJAQ 281000Z 33010KT CAVOK 30/12 Q1011 NOSIG

Zeit: 13:56 (10:56 UTC)

Prognose

Neuester Wetterbericht von vor 5 Stunden und 19 Minuten, um 05:37 UTC
Gültige Prognose vom 28 um 06 UTC bis 29 um 12 UTC
Wind 10 kt aus Nord
Sichtweite 10 km oder mehr
keine Wolken unter 1500 m und keine Kumulonimbus oder Gewitterwolken
Wahrscheinlichkeit 30%
vom 28 um 12 UTC bis 28 um 16 UTC
Wind 18 kt aus Nord
Sichtweite: 4000 m
Staubtreiben

TAF: OJAQ 280537Z 2806/2912 35010KT CAVOK PROB30 2812/2816 01018KT 4000 BLDU

Wetterbeobachtungen und Prognosen von mehr als 4000 Flughäfen (METAR und TAF Bericht).

Die verfügbaren Stationen werden durch gelbe und rote Markierungen auf der Karte dargestellt.

Führen Sie die Maus auf sie, um den Namen der Station zu sehen.

Darauf klicken, um die Beobachtung von Wetterbeobachtungen und Prognosen zu sehen.

Um die Karte zu ändern : klicken Sie auf den grünen Tasten mit einem schwarzen Kreuz Zum Vergrößern, auf den grünen Button mit einem Gedankenstrich zu verkleinern, oder auf die grünen Pfeile für benachbarte Karten.


METAR-TAF: